sensor_id;sensor_type;location;lat;lon;timestamp;pressure;altitude;pressure_sealevel;temperature;humidity
26697;BME280;14312;52.614;13.496;2023-04-30T00:00:16;101344.75;;;11.57;52.46
26697;BME280;14312;52.614;13.496;2023-04-30T00:03:02;101349.50;;;11.55;52.51
26697;BME280;14312;52.614;13.496;2023-04-30T00:05:49;101346.72;;;11.50;52.65
26697;BME280;14312;52.614;13.496;2023-04-30T00:08:36;101349.81;;;11.47;52.47
26697;BME280;14312;52.614;13.496;2023-04-30T00:11:22;101344.59;;;11.40;52.51
26697;BME280;14312;52.614;13.496;2023-04-30T00:14:10;101349.09;;;11.39;52.65
26697;BME280;14312;52.614;13.496;2023-04-30T00:16:56;101354.31;;;11.34;52.68
26697;BME280;14312;52.614;13.496;2023-04-30T00:19:42;101355.81;;;11.30;52.63
26697;BME280;14312;52.614;13.496;2023-04-30T00:22:28;101358.34;;;11.25;52.58
26697;BME280;14312;52.614;13.496;2023-04-30T00:25:14;101357.19;;;11.21;52.77
26697;BME280;14312;52.614;13.496;2023-04-30T00:28:01;101365.03;;;11.16;52.71
26697;BME280;14312;52.614;13.496;2023-04-30T00:30:47;101363.88;;;11.12;52.85
26697;BME280;14312;52.614;13.496;2023-04-30T00:33:33;101359.44;;;11.06;52.94
26697;BME280;14312;52.614;13.496;2023-04-30T00:36:19;101361.16;;;11.01;52.81
26697;BME280;14312;52.614;13.496;2023-04-30T00:39:05;101372.69;;;10.94;53.17
26697;BME280;14312;52.614;13.496;2023-04-30T00:41:51;101372.34;;;10.91;53.06
26697;BME280;14312;52.614;13.496;2023-04-30T00:44:37;101377.53;;;10.86;53.15
26697;BME280;14312;52.614;13.496;2023-04-30T00:47:23;101379.47;;;10.79;53.29
26697;BME280;14312;52.614;13.496;2023-04-30T00:50:10;101377.09;;;10.71;53.33
26697;BME280;14312;52.614;13.496;2023-04-30T00:52:58;101375.88;;;10.67;53.29
26697;BME280;14312;52.614;13.496;2023-04-30T00:55:44;101389.06;;;10.62;53.44
26697;BME280;14312;52.614;13.496;2023-04-30T00:58:30;101397.97;;;10.55;53.49
26697;BME280;14312;52.614;13.496;2023-04-30T01:01:17;101398.84;;;10.49;53.68
26697;BME280;14312;52.614;13.496;2023-04-30T01:04:03;101396.03;;;10.44;53.75
26697;BME280;14312;52.614;13.496;2023-04-30T01:06:49;101399.53;;;10.38;53.71
26697;BME280;14312;52.614;13.496;2023-04-30T01:09:36;101403.69;;;10.34;53.83
26697;BME280;14312;52.614;13.496;2023-04-30T01:12:57;101402.50;;;10.30;54.49
26697;BME280;14312;52.614;13.496;2023-04-30T01:15:58;101410.78;;;10.22;54.57
26697;BME280;14312;52.614;13.496;2023-04-30T01:19:01;101416.13;;;10.15;54.71
26697;BME280;14312;52.614;13.496;2023-04-30T01:21:49;101418.81;;;10.09;54.05
26697;BME280;14312;52.614;13.496;2023-04-30T01:24:58;101422.34;;;10.03;54.72
26697;BME280;14312;52.614;13.496;2023-04-30T01:28:07;101417.91;;;9.97;55.09
26697;BME280;14312;52.614;13.496;2023-04-30T01:30:53;101419.81;;;9.90;54.12
26697;BME280;14312;52.614;13.496;2023-04-30T01:33:39;101421.28;;;9.86;54.27
26697;BME280;14312;52.614;13.496;2023-04-30T01:36:31;101423.75;;;9.80;54.27
26697;BME280;14312;52.614;13.496;2023-04-30T01:42:20;101421.38;;;9.72;54.88
26697;BME280;14312;52.614;13.496;2023-04-30T01:53:49;101438.25;;;9.53;54.65
26697;BME280;14312;52.614;13.496;2023-04-30T01:56:43;101443.19;;;9.50;54.78
26697;BME280;14312;52.614;13.496;2023-04-30T01:59:37;101443.22;;;9.43;55.22
26697;BME280;14312;52.614;13.496;2023-04-30T02:02:23;101448.97;;;9.40;54.67
26697;BME280;14312;52.614;13.496;2023-04-30T02:05:09;101446.13;;;9.35;54.77
26697;BME280;14312;52.614;13.496;2023-04-30T02:07:55;101453.50;;;9.33;54.70
26697;BME280;14312;52.614;13.496;2023-04-30T02:10:41;101461.28;;;9.28;54.92
26697;BME280;14312;52.614;13.496;2023-04-30T02:13:27;101467.03;;;9.25;55.07
26697;BME280;14312;52.614;13.496;2023-04-30T02:16:13;101471.13;;;9.21;55.06
26697;BME280;14312;52.614;13.496;2023-04-30T02:19:00;101470.53;;;9.19;55.25
26697;BME280;14312;52.614;13.496;2023-04-30T02:21:46;101469.91;;;9.17;55.13
26697;BME280;14312;52.614;13.496;2023-04-30T02:24:32;101472.38;;;9.12;55.11
26697;BME280;14312;52.614;13.496;2023-04-30T02:27:18;101478.72;;;9.11;55.10
26697;BME280;14312;52.614;13.496;2023-04-30T02:30:05;101480.19;;;9.07;55.38
26697;BME280;14312;52.614;13.496;2023-04-30T02:32:51;101483.03;;;9.05;55.52
26697;BME280;14312;52.614;13.496;2023-04-30T02:35:39;101487.97;;;9.01;55.49
26697;BME280;14312;52.614;13.496;2023-04-30T02:38:25;101486.75;;;8.97;55.37
26697;BME280;14312;52.614;13.496;2023-04-30T02:41:11;101486.34;;;8.94;55.42
26697;BME280;14312;52.614;13.496;2023-04-30T02:43:57;101485.13;;;8.90;55.29
26697;BME280;14312;52.614;13.496;2023-04-30T02:46:43;101487.59;;;8.85;55.25
26697;BME280;14312;52.614;13.496;2023-04-30T02:49:29;101482.28;;;8.78;55.36
26697;BME280;14312;52.614;13.496;2023-04-30T02:52:15;101490.06;;;8.73;55.51
26697;BME280;14312;52.614;13.496;2023-04-30T02:55:01;101490.88;;;8.67;55.61
26697;BME280;14312;52.614;13.496;2023-04-30T02:57:47;101507.25;;;8.64;55.89
26697;BME280;14312;52.614;13.496;2023-04-30T03:00:33;101497.44;;;8.58;55.81
26697;BME280;14312;52.614;13.496;2023-04-30T03:03:19;101501.31;;;8.55;56.17
26697;BME280;14312;52.614;13.496;2023-04-30T03:06:05;101502.75;;;8.51;56.13
26697;BME280;14312;52.614;13.496;2023-04-30T03:08:51;101505.00;;;8.48;55.87
26697;BME280;14312;52.614;13.496;2023-04-30T03:11:37;101507.44;;;8.43;55.89
26697;BME280;14312;52.614;13.496;2023-04-30T03:14:22;101515.81;;;8.40;55.88
26697;BME280;14312;52.614;13.496;2023-04-30T03:17:08;101507.66;;;8.35;55.75
26697;BME280;14312;52.614;13.496;2023-04-30T03:19:55;101510.47;;;8.26;56.20
26697;BME280;14312;52.614;13.496;2023-04-30T03:22:41;101515.38;;;8.23;55.99
26697;BME280;14312;52.614;13.496;2023-04-30T03:25:27;101518.84;;;8.17;56.19
26697;BME280;14312;52.614;13.496;2023-04-30T03:28:13;101522.91;;;8.13;56.17
26697;BME280;14312;52.614;13.496;2023-04-30T03:30:59;101526.38;;;8.07;56.29
26697;BME280;14312;52.614;13.496;2023-04-30T03:33:45;101527.56;;;8.04;56.44
26697;BME280;14312;52.614;13.496;2023-04-30T03:36:31;101527.19;;;8.01;56.52
26697;BME280;14312;52.614;13.496;2023-04-30T03:39:18;101530.41;;;7.96;56.57
26697;BME280;14312;52.614;13.496;2023-04-30T03:42:04;101533.47;;;7.93;56.68
26697;BME280;14312;52.614;13.496;2023-04-30T03:44:50;101535.72;;;7.90;56.51
26697;BME280;14312;52.614;13.496;2023-04-30T03:47:35;101538.16;;;7.84;56.49
26697;BME280;14312;52.614;13.496;2023-04-30T03:50:22;101535.69;;;7.83;57.06
26697;BME280;14312;52.614;13.496;2023-04-30T03:53:08;101543.66;;;7.83;57.09
26697;BME280;14312;52.614;13.496;2023-04-30T03:55:55;101546.72;;;7.80;57.09
26697;BME280;14312;52.614;13.496;2023-04-30T03:58:41;101542.63;;;7.77;57.33
26697;BME280;14312;52.614;13.496;2023-04-30T04:01:28;101552.41;;;7.77;56.89
26697;BME280;14312;52.614;13.496;2023-04-30T04:04:14;101554.03;;;7.78;57.33
26697;BME280;14312;52.614;13.496;2023-04-30T04:07:00;101557.72;;;7.77;57.10
26697;BME280;14312;52.614;13.496;2023-04-30T04:09:48;101564.66;;;7.78;57.16
26697;BME280;14312;52.614;13.496;2023-04-30T04:12:34;101560.16;;;7.72;57.32
26697;BME280;14312;52.614;13.496;2023-04-30T04:15:20;101565.03;;;7.75;57.56
26697;BME280;14312;52.614;13.496;2023-04-30T04:18:06;101548.28;;;7.68;57.41
26697;BME280;14312;52.614;13.496;2023-04-30T04:20:54;101564.22;;;7.74;57.38
26697;BME280;14312;52.614;13.496;2023-04-30T04:23:40;101562.63;;;7.73;57.45
26697;BME280;14312;52.614;13.496;2023-04-30T04:26:26;101571.16;;;7.75;57.75
26697;BME280;14312;52.614;13.496;2023-04-30T04:29:14;101579.75;;;7.77;57.78
26697;BME280;14312;52.614;13.496;2023-04-30T04:32:00;101576.91;;;7.79;57.63
26697;BME280;14312;52.614;13.496;2023-04-30T04:34:47;101577.72;;;7.79;57.87
26697;BME280;14312;52.614;13.496;2023-04-30T04:37:34;101577.72;;;7.79;57.71
26697;BME280;14312;52.614;13.496;2023-04-30T04:40:20;101586.09;;;7.83;57.93
26697;BME280;14312;52.614;13.496;2023-04-30T04:43:06;101586.72;;;7.85;57.93
26697;BME280;14312;52.614;13.496;2023-04-30T04:45:52;101590.00;;;7.87;57.93
26697;BME280;14312;52.614;13.496;2023-04-30T04:48:38;101581.81;;;7.82;57.81
26697;BME280;14312;52.614;13.496;2023-04-30T04:51:24;101595.31;;;7.87;58.23
26697;BME280;14312;52.614;13.496;2023-04-30T04:54:10;101606.34;;;7.97;58.22
26697;BME280;14312;52.614;13.496;2023-04-30T04:56:56;101604.34;;;7.99;58.01
26697;BME280;14312;52.614;13.496;2023-04-30T04:59:42;101610.69;;;8.05;58.50
26697;BME280;14312;52.614;13.496;2023-04-30T05:02:28;101622.31;;;8.10;58.10
26697;BME280;14312;52.614;13.496;2023-04-30T05:05:14;101621.94;;;8.13;58.36
26697;BME280;14312;52.614;13.496;2023-04-30T05:08:00;101622.78;;;8.20;58.53
26697;BME280;14312;52.614;13.496;2023-04-30T05:10:47;101629.31;;;8.24;58.35
26697;BME280;14312;52.614;13.496;2023-04-30T05:13:33;101626.06;;;8.29;58.24
26697;BME280;14312;52.614;13.496;2023-04-30T05:16:19;101626.50;;;8.33;58.21
26697;BME280;14312;52.614;13.496;2023-04-30T05:19:05;101630.22;;;8.38;58.19
26697;BME280;14312;52.614;13.496;2023-04-30T05:21:51;101638.22;;;8.45;58.21
26697;BME280;14312;52.614;13.496;2023-04-30T05:24:37;101643.72;;;8.50;58.41
26697;BME280;14312;52.614;13.496;2023-04-30T05:27:23;101644.94;;;8.54;58.20
26697;BME280;14312;52.614;13.496;2023-04-30T05:30:10;101647.03;;;8.58;58.49
26697;BME280;14312;52.614;13.496;2023-04-30T05:32:56;101643.13;;;8.61;58.11
26697;BME280;14312;52.614;13.496;2023-04-30T05:35:42;101638.03;;;8.66;58.14
26697;BME280;14312;52.614;13.496;2023-04-30T05:38:29;101652.75;;;8.75;57.95
26697;BME280;14312;52.614;13.496;2023-04-30T05:41:15;101649.28;;;8.81;58.17
26697;BME280;14312;52.614;13.496;2023-04-30T05:44:01;101654.00;;;8.92;58.02
26697;BME280;14312;52.614;13.496;2023-04-30T05:46:49;101667.09;;;9.00;57.83
26697;BME280;14312;52.614;13.496;2023-04-30T05:49:36;101652.78;;;9.01;58.08
26697;BME280;14312;52.614;13.496;2023-04-30T05:52:24;101667.91;;;9.14;57.74
26697;BME280;14312;52.614;13.496;2023-04-30T05:55:10;101657.47;;;9.13;57.69
26697;BME280;14312;52.614;13.496;2023-04-30T05:57:57;101652.97;;;9.20;58.02
26697;BME280;14312;52.614;13.496;2023-04-30T06:00:48;101659.09;;;9.27;58.21
26697;BME280;14312;52.614;13.496;2023-04-30T06:03:34;101673.22;;;9.34;58.35
26697;BME280;14312;52.614;13.496;2023-04-30T06:06:20;101680.16;;;9.48;58.01
26697;BME280;14312;52.614;13.496;2023-04-30T06:09:06;101677.28;;;9.56;57.95
26697;BME280;14312;52.614;13.496;2023-04-30T06:11:52;101659.28;;;9.58;57.85
26697;BME280;14312;52.614;13.496;2023-04-30T06:14:40;101669.47;;;9.74;57.97
26697;BME280;14312;52.614;13.496;2023-04-30T06:17:30;101674.75;;;9.81;57.71
26697;BME280;14312;52.614;13.496;2023-04-30T06:20:16;101677.63;;;9.86;57.67
26697;BME280;14312;52.614;13.496;2023-04-30T06:23:02;101680.47;;;9.98;57.57
26697;BME280;14312;52.614;13.496;2023-04-30T06:25:48;101686.56;;;10.05;57.45
26697;BME280;14312;52.614;13.496;2023-04-30T06:28:34;101695.97;;;10.14;57.63
26697;BME280;14312;52.614;13.496;2023-04-30T06:31:20;101688.81;;;10.21;57.45
26697;BME280;14312;52.614;13.496;2023-04-30T06:34:06;101695.09;;;10.33;57.42
26697;BME280;14312;52.614;13.496;2023-04-30T06:36:52;101703.03;;;10.46;57.42
26697;BME280;14312;52.614;13.496;2023-04-30T06:39:38;101695.81;;;10.53;57.11
26697;BME280;14312;52.614;13.496;2023-04-30T06:42:24;101686.34;;;10.64;56.95
26697;BME280;14312;52.614;13.496;2023-04-30T06:45:10;101692.25;;;10.73;56.81
26697;BME280;14312;52.614;13.496;2023-04-30T06:47:59;101692.19;;;10.79;56.46
26697;BME280;14312;52.614;13.496;2023-04-30T06:50:45;101703.41;;;10.88;56.42
26697;BME280;14312;52.614;13.496;2023-04-30T06:53:31;101693.50;;;10.95;56.59
26697;BME280;14312;52.614;13.496;2023-04-30T06:56:17;101697.53;;;11.04;56.01
26697;BME280;14312;52.614;13.496;2023-04-30T06:59:03;101697.50;;;11.11;56.15
26697;BME280;14312;52.614;13.496;2023-04-30T07:01:49;101697.44;;;11.17;55.85
26697;BME280;14312;52.614;13.496;2023-04-30T07:04:35;101696.56;;;11.23;55.74
26697;BME280;14312;52.614;13.496;2023-04-30T07:07:21;101695.72;;;11.29;55.66
26697;BME280;14312;52.614;13.496;2023-04-30T07:10:08;101696.91;;;11.33;55.72
26697;BME280;14312;52.614;13.496;2023-04-30T07:12:54;101693.34;;;11.39;55.55
26697;BME280;14312;52.614;13.496;2023-04-30T07:15:40;101693.91;;;11.48;55.50
26697;BME280;14312;52.614;13.496;2023-04-30T07:18:26;101693.84;;;11.55;55.34
26697;BME280;14312;52.614;13.496;2023-04-30T07:21:14;101704.22;;;11.63;55.21
26697;BME280;14312;52.614;13.496;2023-04-30T07:24:00;101693.69;;;11.68;54.77
26697;BME280;14312;52.614;13.496;2023-04-30T07:26:49;101697.34;;;11.73;54.79
26697;BME280;14312;52.614;13.496;2023-04-30T07:29:35;101700.44;;;11.77;54.89
26697;BME280;14312;52.614;13.496;2023-04-30T07:32:22;101691.53;;;11.83;54.73
26697;BME280;14312;52.614;13.496;2023-04-30T07:35:11;101695.38;;;11.87;54.39
26697;BME280;14312;52.614;13.496;2023-04-30T07:37:58;101696.78;;;11.90;54.18
26697;BME280;14312;52.614;13.496;2023-04-30T07:40:44;101704.94;;;11.95;54.08
26697;BME280;14312;52.614;13.496;2023-04-30T07:43:33;101694.19;;;12.01;54.02
26697;BME280;14312;52.614;13.496;2023-04-30T07:46:19;101697.25;;;12.05;53.78
26697;BME280;14312;52.614;13.496;2023-04-30T07:49:05;101699.84;;;12.11;53.80
26697;BME280;14312;52.614;13.496;2023-04-30T07:51:50;101698.13;;;12.17;53.85
26697;BME280;14312;52.614;13.496;2023-04-30T07:54:36;101707.91;;;12.23;53.80
26697;BME280;14312;52.614;13.496;2023-04-30T07:57:23;101709.47;;;12.31;53.25
26697;BME280;14312;52.614;13.496;2023-04-30T08:00:11;101712.88;;;12.38;53.27
26697;BME280;14312;52.614;13.496;2023-04-30T08:02:59;101719.16;;;12.43;53.25
26697;BME280;14312;52.614;13.496;2023-04-30T08:05:46;101715.81;;;12.48;53.08
26697;BME280;14312;52.614;13.496;2023-04-30T08:08:32;101719.66;;;12.52;52.74
26697;BME280;14312;52.614;13.496;2023-04-30T08:11:18;101712.84;;;12.56;52.51
26697;BME280;14312;52.614;13.496;2023-04-30T08:14:04;101717.72;;;12.59;52.42
26697;BME280;14312;52.614;13.496;2023-04-30T08:16:51;101708.22;;;12.63;52.73
26697;BME280;14312;52.614;13.496;2023-04-30T08:19:37;101713.09;;;12.66;52.27
26697;BME280;14312;52.614;13.496;2023-04-30T08:22:23;101717.19;;;12.69;52.34
26697;BME280;14312;52.614;13.496;2023-04-30T08:25:10;101714.41;;;12.75;52.34
26697;BME280;14312;52.614;13.496;2023-04-30T08:27:59;101716.56;;;12.85;52.27
26697;BME280;14312;52.614;13.496;2023-04-30T08:30:46;101718.09;;;12.92;51.73
26697;BME280;14312;52.614;13.496;2023-04-30T08:33:32;101727.41;;;13.02;52.56
26697;BME280;14312;52.614;13.496;2023-04-30T08:36:18;101726.03;;;13.11;52.35
26697;BME280;14312;52.614;13.496;2023-04-30T08:39:04;101720.16;;;13.20;52.20
26697;BME280;14312;52.614;13.496;2023-04-30T08:41:54;101714.81;;;13.32;51.88
26697;BME280;14312;52.614;13.496;2023-04-30T08:44:40;101726.34;;;13.44;52.04
26697;BME280;14312;52.614;13.496;2023-04-30T08:47:31;101715.97;;;13.59;51.46
26697;BME280;14312;52.614;13.496;2023-04-30T08:50:20;101722.75;;;13.73;51.39
26697;BME280;14312;52.614;13.496;2023-04-30T08:53:07;101717.72;;;13.89;51.64
26697;BME280;14312;52.614;13.496;2023-04-30T08:55:53;101728.63;;;14.10;51.17
26697;BME280;14312;52.614;13.496;2023-04-30T08:58:39;101721.00;;;14.31;50.92
26697;BME280;14312;52.614;13.496;2023-04-30T09:01:27;101715.75;;;14.47;50.35
26697;BME280;14312;52.614;13.496;2023-04-30T09:04:14;101723.34;;;14.67;50.04
26697;BME280;14312;52.614;13.496;2023-04-30T09:07:00;101726.66;;;14.86;50.40
26697;BME280;14312;52.614;13.496;2023-04-30T09:09:51;101730.75;;;15.05;49.05
26697;BME280;14312;52.614;13.496;2023-04-30T09:12:38;101725.88;;;15.19;49.57
26697;BME280;14312;52.614;13.496;2023-04-30T09:15:29;101726.22;;;15.39;49.43
26697;BME280;14312;52.614;13.496;2023-04-30T09:18:17;101730.53;;;15.57;48.90
26697;BME280;14312;52.614;13.496;2023-04-30T09:21:03;101725.97;;;15.74;47.85
26697;BME280;14312;52.614;13.496;2023-04-30T09:23:56;101728.03;;;15.89;45.98
26697;BME280;14312;52.614;13.496;2023-04-30T09:26:43;101727.09;;;16.00;46.66
26697;BME280;14312;52.614;13.496;2023-04-30T09:29:35;101719.44;;;16.09;45.64
26697;BME280;14312;52.614;13.496;2023-04-30T09:32:22;101719.47;;;16.14;46.48
26697;BME280;14312;52.614;13.496;2023-04-30T09:35:27;101715.94;;;16.30;45.67
26697;BME280;14312;52.614;13.496;2023-04-30T09:38:31;101715.00;;;16.41;45.06
26697;BME280;14312;52.614;13.496;2023-04-30T09:41:26;101716.78;;;16.57;44.98
26697;BME280;14312;52.614;13.496;2023-04-30T09:44:29;101722.09;;;16.74;44.55
26697;BME280;14312;52.614;13.496;2023-04-30T09:47:17;101718.75;;;16.89;45.64
26697;BME280;14312;52.614;13.496;2023-04-30T09:50:04;101725.31;;;16.98;45.31
26697;BME280;14312;52.614;13.496;2023-04-30T09:53:10;101717.31;;;17.13;43.67
26697;BME280;14312;52.614;13.496;2023-04-30T09:56:01;101717.91;;;17.20;44.21
26697;BME280;14312;52.614;13.496;2023-04-30T09:58:55;101717.44;;;17.28;44.15
26697;BME280;14312;52.614;13.496;2023-04-30T10:01:42;101721.88;;;17.39;45.04
26697;BME280;14312;52.614;13.496;2023-04-30T10:04:30;101712.22;;;17.48;44.08
26697;BME280;14312;52.614;13.496;2023-04-30T10:07:19;101700.41;;;17.54;44.00
26697;BME280;14312;52.614;13.496;2023-04-30T10:10:09;101701.03;;;17.62;43.18
26697;BME280;14312;52.614;13.496;2023-04-30T10:13:00;101703.19;;;17.65;43.67
26697;BME280;14312;52.614;13.496;2023-04-30T10:15:50;101703.19;;;17.65;43.45
26697;BME280;14312;52.614;13.496;2023-04-30T10:18:38;101701.31;;;17.65;43.59
26697;BME280;14312;52.614;13.496;2023-04-30T10:21:27;101698.91;;;17.69;42.94
26697;BME280;14312;52.614;13.496;2023-04-30T10:24:13;101696.75;;;17.71;42.90
26697;BME280;14312;52.614;13.496;2023-04-30T10:27:00;101697.88;;;17.75;42.73
26697;BME280;14312;52.614;13.496;2023-04-30T10:29:46;101691.41;;;17.81;42.83
26697;BME280;14312;52.614;13.496;2023-04-30T10:32:56;101679.06;;;17.90;41.61
26697;BME280;14312;52.614;13.496;2023-04-30T10:36:02;101688.25;;;17.99;41.05
26697;BME280;14312;52.614;13.496;2023-04-30T10:38:49;101680.22;;;18.04;41.66
26697;BME280;14312;52.614;13.496;2023-04-30T10:41:36;101671.56;;;18.02;41.17
26697;BME280;14312;52.614;13.496;2023-04-30T10:44:22;101685.56;;;17.94;41.26
26697;BME280;14312;52.614;13.496;2023-04-30T10:47:10;101674.44;;;17.85;40.86
26697;BME280;14312;52.614;13.496;2023-04-30T10:50:03;101670.91;;;17.80;40.18
26697;BME280;14312;52.614;13.496;2023-04-30T10:53:03;101679.81;;;17.80;40.92
26697;BME280;14312;52.614;13.496;2023-04-30T10:55:58;101668.50;;;17.83;40.82
26697;BME280;14312;52.614;13.496;2023-04-30T10:58:45;101675.00;;;17.87;41.27
26697;BME280;14312;52.614;13.496;2023-04-30T11:01:31;101666.91;;;17.87;40.93
26697;BME280;14312;52.614;13.496;2023-04-30T11:07:55;101663.66;;;17.90;41.23
26697;BME280;14312;52.614;13.496;2023-04-30T11:10:56;101666.69;;;17.99;41.11
26697;BME280;14312;52.614;13.496;2023-04-30T11:13:44;101663.47;;;18.07;41.48
26697;BME280;14312;52.614;13.496;2023-04-30T11:16:33;101664.03;;;18.14;40.49
26697;BME280;14312;52.614;13.496;2023-04-30T11:19:21;101653.25;;;18.19;40.71
26697;BME280;14312;52.614;13.496;2023-04-30T11:25:03;101652.22;;;18.35;40.77
26697;BME280;14312;52.614;13.496;2023-04-30T11:27:50;101650.63;;;18.50;41.10
26697;BME280;14312;52.614;13.496;2023-04-30T11:30:36;101656.34;;;18.63;40.02
26697;BME280;14312;52.614;13.496;2023-04-30T11:33:29;101648.00;;;18.75;39.36
26697;BME280;14312;52.614;13.496;2023-04-30T11:36:15;101648.81;;;18.81;39.82
26697;BME280;14312;52.614;13.496;2023-04-30T11:39:02;101647.19;;;18.85;39.87
26697;BME280;14312;52.614;13.496;2023-04-30T11:41:50;101642.06;;;18.88;40.34
26697;BME280;14312;52.614;13.496;2023-04-30T11:44:36;101648.53;;;18.97;40.57
26697;BME280;14312;52.614;13.496;2023-04-30T11:47:23;101648.00;;;19.10;40.37
26697;BME280;14312;52.614;13.496;2023-04-30T11:50:10;101659.59;;;19.26;39.94
26697;BME280;14312;52.614;13.496;2023-04-30T11:52:58;101648.50;;;19.38;39.83
26697;BME280;14312;52.614;13.496;2023-04-30T11:55:46;101634.44;;;19.51;39.21
26697;BME280;14312;52.614;13.496;2023-04-30T11:58:36;101639.81;;;19.61;38.37
26697;BME280;14312;52.614;13.496;2023-04-30T12:01:27;101638.44;;;19.64;37.85
26697;BME280;14312;52.614;13.496;2023-04-30T12:04:13;101628.97;;;19.61;38.57
26697;BME280;14312;52.614;13.496;2023-04-30T12:06:59;101640.88;;;19.65;38.35
26697;BME280;14312;52.614;13.496;2023-04-30T12:09:57;101639.25;;;19.74;37.66
26697;BME280;14312;52.614;13.496;2023-04-30T12:12:43;101635.44;;;19.75;38.64
26697;BME280;14312;52.614;13.496;2023-04-30T12:15:29;101638.38;;;19.84;38.46
26697;BME280;14312;52.614;13.496;2023-04-30T12:18:17;101632.66;;;19.90;38.56
26697;BME280;14312;52.614;13.496;2023-04-30T12:21:03;101626.41;;;20.00;38.66
26697;BME280;14312;52.614;13.496;2023-04-30T12:23:49;101624.44;;;20.16;38.83
26697;BME280;14312;52.614;13.496;2023-04-30T12:26:36;101628.56;;;20.47;39.14
26697;BME280;14312;52.614;13.496;2023-04-30T12:29:24;101626.94;;;20.85;38.75
26697;BME280;14312;52.614;13.496;2023-04-30T12:32:10;101617.16;;;21.18;38.19
26697;BME280;14312;52.614;13.496;2023-04-30T12:35:00;101616.31;;;21.46;38.03
26697;BME280;14312;52.614;13.496;2023-04-30T12:38:00;101620.72;;;21.66;36.16
26697;BME280;14312;52.614;13.496;2023-04-30T12:40:46;101627.97;;;21.71;36.56
26697;BME280;14312;52.614;13.496;2023-04-30T12:43:33;101625.81;;;21.68;36.20
26697;BME280;14312;52.614;13.496;2023-04-30T12:46:25;101616.44;;;21.60;35.55
26697;BME280;14312;52.614;13.496;2023-04-30T12:49:32;101620.00;;;21.56;36.28
26697;BME280;14312;52.614;13.496;2023-04-30T12:52:22;101605.13;;;21.53;36.25
26697;BME280;14312;52.614;13.496;2023-04-30T12:55:19;101608.13;;;21.52;35.24
26697;BME280;14312;52.614;13.496;2023-04-30T12:58:07;101614.72;;;21.45;36.13
26697;BME280;14312;52.614;13.496;2023-04-30T13:00:55;101609.31;;;21.45;36.47
26697;BME280;14312;52.614;13.496;2023-04-30T13:03:43;101599.88;;;21.62;36.78
26697;BME280;14312;52.614;13.496;2023-04-30T13:06:29;101602.56;;;21.85;36.64
26697;BME280;14312;52.614;13.496;2023-04-30T13:09:15;101604.13;;;22.10;36.00
26697;BME280;14312;52.614;13.496;2023-04-30T13:12:01;101598.00;;;22.23;35.33
26697;BME280;14312;52.614;13.496;2023-04-30T13:14:47;101590.34;;;22.25;35.18
26697;BME280;14312;52.614;13.496;2023-04-30T13:17:33;101589.84;;;22.23;35.14
26697;BME280;14312;52.614;13.496;2023-04-30T13:20:19;101590.34;;;22.25;35.17
26697;BME280;14312;52.614;13.496;2023-04-30T13:23:05;101583.28;;;22.24;34.96
26697;BME280;14312;52.614;13.496;2023-04-30T13:25:51;101593.66;;;22.22;34.48
26697;BME280;14312;52.614;13.496;2023-04-30T13:28:37;101593.72;;;22.17;34.55
26697;BME280;14312;52.614;13.496;2023-04-30T13:31:23;101580.66;;;22.19;34.98
26697;BME280;14312;52.614;13.496;2023-04-30T13:34:10;101583.72;;;22.32;35.13
26697;BME280;14312;52.614;13.496;2023-04-30T13:36:55;101585.34;;;22.51;34.75
26697;BME280;14312;52.614;13.496;2023-04-30T13:39:41;101593.53;;;22.65;34.21
26697;BME280;14312;52.614;13.496;2023-04-30T13:42:27;101595.59;;;22.73;33.66
26697;BME280;14312;52.614;13.496;2023-04-30T13:45:14;101582.28;;;22.72;33.55
26697;BME280;14312;52.614;13.496;2023-04-30T13:48:00;101583.66;;;22.69;33.75
26697;BME280;14312;52.614;13.496;2023-04-30T13:50:46;101582.56;;;22.70;33.68
26697;BME280;14312;52.614;13.496;2023-04-30T13:53:31;101581.91;;;22.78;33.24
26697;BME280;14312;52.614;13.496;2023-04-30T13:56:17;101578.50;;;22.86;33.44
26697;BME280;14312;52.614;13.496;2023-04-30T13:59:03;101584.38;;;22.93;32.99
26697;BME280;14312;52.614;13.496;2023-04-30T14:01:50;101575.13;;;22.94;32.50
26697;BME280;14312;52.614;13.496;2023-04-30T14:04:36;101574.31;;;22.94;32.47
26697;BME280;14312;52.614;13.496;2023-04-30T14:07:23;101570.69;;;22.98;32.38
26697;BME280;14312;52.614;13.496;2023-04-30T14:10:09;101568.06;;;23.07;32.41
26697;BME280;14312;52.614;13.496;2023-04-30T14:12:55;101568.88;;;23.21;32.01
26697;BME280;14312;52.614;13.496;2023-04-30T14:15:40;101566.16;;;23.35;32.37
26697;BME280;14312;52.614;13.496;2023-04-30T14:18:26;101560.22;;;23.47;31.72
26697;BME280;14312;52.614;13.496;2023-04-30T14:21:12;101561.44;;;23.54;31.45
26697;BME280;14312;52.614;13.496;2023-04-30T14:23:59;101554.38;;;23.53;30.67
26697;BME280;14312;52.614;13.496;2023-04-30T14:26:44;101560.44;;;23.50;31.00
26697;BME280;14312;52.614;13.496;2023-04-30T14:29:30;101547.72;;;23.46;31.33
26697;BME280;14312;52.614;13.496;2023-04-30T14:32:16;101554.38;;;23.53;31.72
26697;BME280;14312;52.614;13.496;2023-04-30T14:35:02;101548.63;;;23.68;30.79
26697;BME280;14312;52.614;13.496;2023-04-30T14:37:49;101550.03;;;23.79;30.97
26697;BME280;14312;52.614;13.496;2023-04-30T14:40:35;101539.81;;;23.85;30.78
26697;BME280;14312;52.614;13.496;2023-04-30T14:43:21;101540.00;;;23.89;30.48
26697;BME280;14312;52.614;13.496;2023-04-30T14:46:08;101534.88;;;23.87;30.30